Luis Lopez, New Mexico
Current Conditions -  °F | °C
As of 11:55 PM on Wednesday 22 Oct 2014 (Local Time) from KONM Reporting Station
Clear Clear  
Wind Chill: 56°   Ceiling: Unl
Heat Index: 56°   Visibility: 10mi
Dew Point: 50°   Wind: 6mph
Humidity: 79%   Direction: 170°S
Pressure: 30.17"   Gusts: NA
Location:  33.8946°N, 106.565°W
Report Text: KONM 230555Z AUTO 17005KT 10SM CLR 14/10 A3017 RMK AO2 T01360100 10216 20136 402340097
Loading
Personal Weather Stations






























Interactive Weather Map New forecast layout! Learn more

10-Day Weather Forecast

Advertisements
Track Severe Weather on mobile